Trout Lake, MI

8:18 AM EDT on August 21, 2014 (GMT -0400)
Mackinac Island | Change Station
CLOSE
Current Station
Airport
Location: Mackinac Island,
Elevation: 741 ft
Nearby Weather Stations

Elev 741 ft 45.87 °N, 84.64 °W | Updated 19 minutes ago

Overcast
Overcast
60 °F
Feels Like 60 °F
N
4
Wind Variable Wind from NW

Today
High -- | Low -- °F
--% Chance of Precip.
Yesterday
High -- | Low -- °F
Precip. -- in
6:46 AM 8:38 PM
Waning Crescent, 14% visible
Pressure 29.97 in
Visibility 4.0 miles
Clouds Overcast 200 ft
Dew Point 60 °F
Humidity 100%
Rainfall 0.00 in
Snow Depth Not available.
UV 0 out of 12
Pollen 8.80 out of 12
Ozone Good
PM2.5 Good
Flu Activity Not available.
METAR KMCD 211159Z AUTO 31003KT 4SM BR OVC002 16/16 A2997 RMK AO2 70001 T01550155 10160 20152

More Conditions Fewer Conditions

Pressure 29.97 in
Visibility 4.0 miles
Clouds Overcast 200 ft
Dew Point 60 °F
Humidity 100%
Rainfall 0.00 in
Snow Depth Not available.
UV 0 out of 12
Pollen 8.80 out of 12
Ozone Good
PM2.5 Good
Flu Activity Not available.
METAR KMCD 211159Z AUTO 31003KT 4SM BR OVC002 16/16 A2997 RMK AO2 70001 T01550155 10160 20152

More Conditions Fewer Conditions

Nowcast | as of 8:00 am EDT on August 21, 2014

At 9 am...cloudy. Areas of fog. Occasional drizzle. Temperature 61. Light winds. At 11 am...cloudy. Temperature 63. Light winds. At 1 PM...mostly cloudy. Temperature 68. West winds 6 mph. At 3 PM...mostly cloudy. Temperature 71. West winds 6 mph.

×

10-Day Weather Forecast

Almanac

Astronomy

Aug. 21, 2014 Rise Set
Actual Time 6:46 AM EDT 8:38 PM EDT
Civil Twilight 6:14 AM EDT 9:10 PM EDT
Nautical Twilight 5:35 AM EDT 9:49 PM EDT
Astronomical Twilight 4:51 AM EDT 10:32 PM EDT
Moon 3:10 AM EDT 6:11 PM EDT
Length of Visible Light 14h 56m
Length of Day
13h 52m
Tomorrow will be 3m 2s shorter.
Waning Crescent, 14% of the Moon is Illuminated
Today
Waning Crescent
Aug 25
New
Sep 2
First Quarter
Sep 8
Full
Sep 15
Last Quarter

Today's Extremes

State Highs State Lows

Community

WunderPhotos

Upload Photos

1,745,885 photos uploaded!

WunderBlogs® & News

Nearby

Air Quality

  Air Quality AQ Index Pollutant
Yesterday Good
PM2.5
Yesterday Good
OZONE
Current Good
PM2.5
Current Good
OZONE
Thursday Good
OZONE
Thursday Good
PM2.5

Snow Depth

Station Depth Elevation
No new snow has been reported.

Earthquake Activity

City Distance Mag. Time & Date
No recent earthquake activity has been reported nearby.
Minimum magnitude displayed is 2.5.

Coastal Water Temperatures

Place Temperature
Port Inland, MI 61.0 °F
S W Pier, MI 61.0 °F

Nearby Weather Stations